Time;durP1;ratioP1;P1;durP2;ratioP2;P2;SDS_P1;SDS_P2;PMS_P1;PMS_P2;Temp;Humidity;BMP_temperature;BMP_pressure;BME280_temperature;BME280_humidity;BME280_pressure;Samples;Min_cycle;Max_cycle;Signal;HPM_P1;HPM_P2
2021/09/01 00:02:19;;;;;;;15.00;12.50;;;24.00;50.80;;;;;;4741935;54;21033;-35
2021/09/01 00:07:20;;;;;;;15.07;12.23;;;24.00;50.80;;;;;;4792051;55;21001;-34
2021/09/01 00:12:21;;;;;;;15.20;12.73;;;24.00;50.80;;;;;;4742503;54;21056;-33
2021/09/01 00:17:22;;;;;;;15.55;12.32;;;23.90;50.80;;;;;;4730593;59;21543;-30
2021/09/01 00:22:23;;;;;;;14.15;12.35;;;23.90;50.70;;;;;;4754415;54;21006;-36
2021/09/01 00:27:25;;;;;;;13.20;11.32;;;23.90;50.70;;;;;;4731613;59;21001;-33
2021/09/01 00:32:25;;;;;;;13.38;11.12;;;23.90;50.70;;;;;;4756715;54;21029;-34
2021/09/01 00:37:26;;;;;;;13.27;11.88;;;23.90;50.70;;;;;;4745669;55;21034;-35
2021/09/01 00:42:27;;;;;;;13.32;10.98;;;23.90;50.70;;;;;;4739928;55;21507;-35
2021/09/01 00:47:28;;;;;;;14.90;11.43;;;23.90;50.80;;;;;;4731355;55;21089;-32
2021/09/01 00:52:29;;;;;;;12.43;11.12;;;23.90;50.70;;;;;;4808429;55;21017;-33
2021/09/01 00:57:30;;;;;;;14.07;11.60;;;23.90;50.70;;;;;;4754692;55;21037;-36
2021/09/01 01:02:31;;;;;;;12.43;11.07;;;23.90;50.70;;;;;;4730808;59;21060;-31
2021/09/01 01:07:32;;;;;;;11.38;10.18;;;23.90;50.70;;;;;;4754840;55;21001;-35
2021/09/01 01:12:33;;;;;;;13.90;10.75;;;23.90;51.30;;;;;;4742347;55;21479;-35
2021/09/01 01:17:34;;;;;;;12.02;10.15;;;23.90;50.70;;;;;;4730270;59;21601;-36
2021/09/01 01:22:35;;;;;;;11.05;9.93;;;23.90;50.70;;;;;;4745565;54;21017;-36
2021/09/01 01:27:42;;;;;;;12.40;9.98;;;23.90;50.70;;;;;;4735318;55;21005;-34
2021/09/01 01:32:45;;;;;;;10.88;9.32;;;23.90;50.70;;;;;;4739269;55;21081;-33
2021/09/01 01:37:46;;;;;;;11.38;9.43;;;23.90;50.70;;;;;;4749188;55;21037;-30
2021/09/01 01:42:49;;;;;;;11.40;9.70;;;23.90;51.30;;;;;;4731597;59;21499;-32
2021/09/01 01:47:50;;;;;;;10.50;9.02;;;23.90;50.70;;;;;;4756391;55;21005;-34
2021/09/01 01:52:51;;;;;;;10.85;8.77;;;23.90;50.70;;;;;;4732158;59;21009;-34
2021/09/01 01:57:51;;;;;;;10.43;8.73;;;23.90;50.70;;;;;;4732592;55;21025;-35
2021/09/01 02:03:02;;;;;;;11.70;9.95;;;23.90;50.70;;;;;;4731384;59;21009;-36
2021/09/01 02:08:03;;;;;;;10.02;9.02;;;23.90;50.70;;;;;;4741608;55;21081;-35
2021/09/01 02:13:04;;;;;;;9.73;8.73;;;23.90;50.70;;;;;;4768525;55;21021;-32
2021/09/01 02:18:05;;;;;;;10.93;9.13;;;23.90;50.70;;;;;;4757526;55;21069;-33
2021/09/01 02:23:05;;;;;;;9.55;8.45;;;23.90;50.70;;;;;;4731311;59;21131;-33
2021/09/01 02:28:06;;;;;;;9.88;8.27;;;23.90;50.80;;;;;;4743544;55;21005;-34
2021/09/01 02:33:07;;;;;;;10.05;8.85;;;23.90;50.70;;;;;;4780682;55;21037;-35
2021/09/01 02:38:08;;;;;;;10.43;8.75;;;23.90;50.70;;;;;;4747306;55;21037;-34
2021/09/01 02:43:09;;;;;;;8.57;7.62;;;23.80;50.60;;;;;;4740617;55;21499;-31
2021/09/01 02:48:09;;;;;;;9.40;7.80;;;23.80;50.60;;;;;;4731719;59;21658;-35
2021/09/01 02:53:10;;;;;;;8.68;7.78;;;23.80;50.60;;;;;;4731497;59;21072;-34
2021/09/01 02:58:12;;;;;;;9.15;7.85;;;23.90;50.70;;;;;;4731985;55;21080;-35
2021/09/01 03:03:13;;;;;;;9.73;8.38;;;23.80;50.60;;;;;;4744778;55;21456;-36
2021/09/01 03:08:14;;;;;;;8.77;7.87;;;23.80;50.70;;;;;;4747070;55;21045;-34
2021/09/01 03:13:15;;;;;;;8.15;7.30;;;23.80;50.60;;;;;;4731697;55;21084;-33
2021/09/01 03:18:16;;;;;;;8.18;7.37;;;23.80;50.70;;;;;;4745325;55;21065;-33
2021/09/01 03:23:17;;;;;;;10.10;7.47;;;23.80;50.70;;;;;;4864849;55;21072;-35
2021/09/01 03:28:18;;;;;;;7.90;6.78;;;23.80;50.70;;;;;;4731097;59;21486;-33
2021/09/01 03:33:19;;;;;;;7.43;6.68;;;23.80;50.70;;;;;;4747138;55;21428;-35
2021/09/01 03:38:20;;;;;;;7.87;7.03;;;23.80;50.80;;;;;;4762981;55;21121;-33
2021/09/01 03:43:21;;;;;;;8.38;7.32;;;23.80;50.70;;;;;;4747564;54;21021;-34
2021/09/01 03:48:22;;;;;;;7.25;6.53;;;23.80;50.80;;;;;;4748300;55;21037;-35
2021/09/01 03:53:23;;;;;;;7.90;7.10;;;23.80;50.80;;;;;;4733510;55;21049;-36
2021/09/01 03:58:24;;;;;;;7.60;6.50;;;23.80;50.80;;;;;;4764964;55;21053;-35
2021/09/01 04:03:24;;;;;;;8.98;6.82;;;23.80;50.90;;;;;;4732543;55;21449;-33
2021/09/01 04:08:25;;;;;;;7.70;6.90;;;23.80;50.90;;;;;;4775077;55;21033;-35
2021/09/01 04:13:26;;;;;;;7.18;6.47;;;23.80;50.90;;;;;;4742660;55;21065;-31
2021/09/01 04:18:27;;;;;;;9.00;6.40;;;23.80;50.90;;;;;;4783055;55;21046;-34
2021/09/01 04:23:28;;;;;;;7.07;6.37;;;23.80;50.90;;;;;;4744366;55;21013;-34
2021/09/01 04:28:30;;;;;;;7.50;6.00;;;23.80;51.00;;;;;;4732613;55;21093;-34
2021/09/01 04:33:31;;;;;;;7.07;6.35;;;23.80;51.10;;;;;;4748230;55;21069;-34
2021/09/01 04:38:32;;;;;;;7.68;6.60;;;23.80;51.10;;;;;;4732743;54;22348;-35
2021/09/01 04:43:33;;;;;;;6.68;6.07;;;23.80;51.20;;;;;;4741726;55;21184;-32
2021/09/01 04:48:34;;;;;;;7.43;6.25;;;23.80;51.30;;;;;;4750791;55;20994;-34
2021/09/01 04:53:34;;;;;;;6.80;6.10;;;23.80;51.30;;;;;;4751794;55;21514;-36
2021/09/01 04:58:35;;;;;;;7.00;6.22;;;23.80;51.30;;;;;;4776115;55;21029;-30
2021/09/01 05:03:36;;;;;;;7.87;6.22;;;23.70;51.40;;;;;;4752328;55;21515;-34
2021/09/01 05:08:37;;;;;;;7.07;6.37;;;23.80;51.40;;;;;;4752326;55;21071;-32
2021/09/01 05:13:38;;;;;;;7.72;6.50;;;23.80;52.10;;;;;;4744449;55;21112;-34
2021/09/01 05:18:39;;;;;;;9.55;6.00;;;23.80;51.40;;;;;;4760305;55;21519;-33
2021/09/01 05:23:41;;;;;;;7.47;6.00;;;23.80;51.50;;;;;;4760368;55;21009;-32
2021/09/01 05:28:44;;;;;;;7.80;6.53;;;23.70;51.30;;;;;;4741786;55;21003;-34
2021/09/01 05:33:50;;;;;;;6.55;5.93;;;23.70;51.40;;;;;;4734177;55;21619;-34
2021/09/01 05:38:52;;;;;;;6.70;6.00;;;23.70;51.40;;;;;;4731431;55;21502;-33
2021/09/01 05:43:54;;;;;;;7.30;5.62;;;23.70;51.40;;;;;;4746572;55;21041;-35
2021/09/01 05:48:58;;;;;;;7.72;6.55;;;23.70;51.40;;;;;;4762735;55;21057;-33
2021/09/01 05:53:59;;;;;;;7.28;6.57;;;23.70;51.40;;;;;;4732923;55;21160;-34
2021/09/01 05:59:07;;;;;;;6.90;6.20;;;23.70;51.50;;;;;;4742492;55;21670;-36
2021/09/01 06:04:10;;;;;;;6.68;5.97;;;23.80;51.50;;;;;;4731800;59;21583;-34
2021/09/01 06:09:11;;;;;;;7.95;6.05;;;23.70;51.50;;;;;;4750557;55;21550;-35
2021/09/01 06:14:12;;;;;;;7.53;6.47;;;23.70;51.50;;;;;;4731148;59;21005;-34
2021/09/01 06:19:13;;;;;;;6.40;5.80;;;23.80;51.60;;;;;;4745613;54;21053;-36
2021/09/01 06:24:14;;;;;;;8.73;6.37;;;23.70;51.50;;;;;;4759005;55;21001;-36
2021/09/01 06:29:14;;;;;;;7.12;6.43;;;23.70;51.50;;;;;;4732126;55;21029;-33
2021/09/01 06:34:15;;;;;;;7.50;6.57;;;23.70;51.50;;;;;;4747189;55;21522;-32
2021/09/01 06:39:16;;;;;;;7.03;6.32;;;23.70;51.50;;;;;;4730877;56;21148;-34
2021/09/01 06:44:17;;;;;;;7.15;6.40;;;23.70;51.50;;;;;;4752462;55;21147;-33
2021/09/01 06:49:18;;;;;;;9.68;7.32;;;23.70;51.50;;;;;;4736666;55;21049;-35
2021/09/01 06:54:19;;;;;;;10.23;7.53;;;23.70;51.50;;;;;;4731961;58;21068;-35
2021/09/01 06:59:20;;;;;;;9.25;7.47;;;23.70;51.60;;;;;;4760861;55;21060;-33
2021/09/01 07:04:21;;;;;;;8.68;7.78;;;23.70;51.60;;;;;;4794987;55;21041;-34
2021/09/01 07:09:22;;;;;;;11.18;8.88;;;23.70;51.60;;;;;;4730655;59;21146;-32
2021/09/01 07:14:22;;;;;;;13.07;10.00;;;23.70;51.90;;;;;;4731798;55;21033;-33
2021/09/01 07:19:23;;;;;;;14.25;9.98;;;23.80;51.70;;;;;;4748785;55;21507;-31
2021/09/01 07:24:24;;;;;;;12.02;9.65;;;23.80;52.50;;;;;;4735884;55;21065;-32
2021/09/01 07:29:25;;;;;;;11.43;9.05;;;23.80;52.60;;;;;;4778737;55;20989;-34
2021/09/01 07:34:25;;;;;;;13.32;9.27;;;23.90;52.70;;;;;;4763770;55;22202;-33
2021/09/01 07:39:26;;;;;;;16.27;10.70;;;23.90;52.90;;;;;;4735443;55;21060;-30
2021/09/01 07:44:27;;;;;;;16.33;10.68;;;23.90;52.90;;;;;;4756583;54;21009;-31
2021/09/01 07:49:31;;;;;;;14.10;10.38;;;23.90;53.10;;;;;;4746483;55;20997;-32
2021/09/01 07:54:32;;;;;;;15.43;10.93;;;24.00;53.20;;;;;;4774650;55;21487;-31
2021/09/01 07:59:33;;;;;;;15.25;11.12;;;24.00;53.30;;;;;;4739477;55;21005;-33
2021/09/01 08:04:33;;;;;;;15.13;11.65;;;24.00;53.20;;;;;;4741731;55;21010;-33
2021/09/01 08:09:34;;;;;;;15.40;11.23;;;24.00;53.10;;;;;;4727681;59;21009;-28
2021/09/01 08:14:36;;;;;;;45.88;30.20;;;24.00;53.00;;;;;;4740492;55;22169;-33
2021/09/01 08:19:37;;;;;;;56.90;38.53;;;24.00;53.40;;;;;;4730063;55;21479;-30
2021/09/01 08:24:38;;;;;;;89.28;63.63;;;23.90;53.80;;;;;;4810960;55;21061;-36
2021/09/01 08:29:40;;;;;;;76.78;58.33;;;23.90;54.00;;;;;;4749447;55;21021;-30
2021/09/01 08:34:41;;;;;;;203.70;88.22;;;23.90;53.70;;;;;;4766864;54;21056;-36
2021/09/01 08:39:42;;;;;;;126.57;86.35;;;23.90;54.40;;;;;;4730751;55;21465;-33
2021/09/01 08:44:42;;;;;;;107.25;75.47;;;23.80;53.80;;;;;;4747321;54;21558;-34
2021/09/01 08:49:46;;;;;;;90.55;62.40;;;23.90;53.90;;;;;;4816741;55;21013;-34
2021/09/01 08:54:46;;;;;;;75.95;56.83;;;23.90;54.00;;;;;;4731676;55;21104;-33
2021/09/01 08:59:47;;;;;;;73.22;54.70;;;23.90;54.00;;;;;;4759629;55;21472;-31
2021/09/01 09:04:48;;;;;;;78.62;53.05;;;23.90;54.00;;;;;;4742363;55;21021;-33
2021/09/01 09:09:49;;;;;;;74.50;54.75;;;23.90;54.00;;;;;;4731286;59;21028;-33
2021/09/01 09:14:50;;;;;;;71.55;52.95;;;23.90;54.00;;;;;;4765821;54;21072;-33
2021/09/01 09:20:02;;;;;;;70.03;53.47;;;23.90;54.00;;;;;;4737858;55;21033;-34
2021/09/01 09:25:36;;;;;;;75.90;47.85;;;24.00;54.10;;;;;;4733800;55;21462;-31
2021/09/01 09:30:45;;;;;;;67.60;47.67;;;23.90;54.10;;;;;;4746289;55;21049;-33
2021/09/01 09:36:01;;;;;;;69.28;49.30;;;23.90;54.10;;;;;;4730149;58;21438;-30
2021/09/01 09:41:04;;;;;;;65.37;49.67;;;24.00;54.20;;;;;;4732670;54;21511;-31
2021/09/01 09:46:10;;;;;;;67.75;49.78;;;23.90;54.20;;;;;;4741721;54;21032;-30
2021/09/01 09:51:16;;;;;;;64.20;46.30;;;24.00;54.70;;;;;;4760253;55;21508;-29
2021/09/01 09:56:29;;;;;;;55.95;40.45;;;23.90;54.60;;;;;;4731569;59;21034;-30
2021/09/01 10:01:30;;;;;;;56.53;38.88;;;24.00;54.80;;;;;;4732906;55;21456;-30
2021/09/01 10:06:31;;;;;;;48.67;37.00;;;24.00;54.70;;;;;;4762505;54;21025;-33
2021/09/01 10:11:35;;;;;;;54.08;38.08;;;23.90;54.40;;;;;;4750164;54;21495;-30
2021/09/01 10:16:42;;;;;;;62.90;41.05;;;24.00;54.20;;;;;;4730623;59;21165;-32
2021/09/01 10:21:44;;;;;;;;;;;24.00;54.10;;;;;;4733639;58;21073;-33
2021/09/01 10:30:17;;;;;;;71.40;49.47;;;24.00;54.20;;;;;;4732347;54;20073;-32
2021/09/01 10:35:28;;;;;;;70.22;51.03;;;24.00;54.20;;;;;;4733761;55;21037;-31
2021/09/01 10:40:53;;;;;;;68.32;46.70;;;24.00;54.10;;;;;;4735569;55;22495;-33
2021/09/01 10:45:56;;;;;;;67.28;47.28;;;24.00;54.30;;;;;;4731079;55;21369;-32
2021/09/01 10:50:56;;;;;;;62.53;46.08;;;24.00;54.20;;;;;;4742889;54;21479;-32
2021/09/01 10:56:12;;;;;;;63.03;46.13;;;24.00;54.00;;;;;;4758790;55;21057;-31
2021/09/01 11:01:22;;;;;;;59.75;44.33;;;24.10;54.00;;;;;;4730975;58;21613;-31
2021/09/01 11:06:34;;;;;;;59.83;43.75;;;24.10;53.90;;;;;;4781752;54;21056;-32
2021/09/01 11:11:52;;;;;;;60.12;43.85;;;24.10;53.90;;;;;;4730957;58;21037;-31
2021/09/01 11:16:53;;;;;;;54.00;41.97;;;24.10;53.70;;;;;;4766398;54;21049;-34
2021/09/01 11:22:00;;;;;;;51.37;40.10;;;24.10;53.80;;;;;;4732512;54;21025;-32
2021/09/01 11:27:01;;;;;;;51.13;39.22;;;24.10;53.90;;;;;;4778102;54;21622;-31
2021/09/01 11:32:02;;;;;;;52.62;39.15;;;24.10;53.90;;;;;;4749043;54;21009;-33
2021/09/01 11:37:03;;;;;;;50.60;38.70;;;24.10;54.00;;;;;;4759065;54;21073;-32
2021/09/01 11:42:04;;;;;;;46.90;36.38;;;24.20;54.10;;;;;;4739288;55;21272;-32
2021/09/01 11:47:15;;;;;;;47.97;36.80;;;24.20;54.20;;;;;;4731868;54;21017;-32
2021/09/01 11:52:29;;;;;;;47.33;36.67;;;24.20;54.10;;;;;;4738724;54;21562;-32
2021/09/01 11:57:31;;;;;;;48.17;37.55;;;24.20;54.00;;;;;;4731025;54;21179;-32
2021/09/01 12:02:33;;;;;;;47.92;38.03;;;24.20;54.10;;;;;;4731564;58;21107;-32
2021/09/01 12:07:37;;;;;;;45.92;36.13;;;24.20;54.10;;;;;;4748288;54;21026;-33
2021/09/01 12:12:40;;;;;;;48.53;36.67;;;24.20;54.20;;;;;;4730991;59;21650;-32
2021/09/01 12:17:44;;;;;;;45.28;35.67;;;24.30;54.50;;;;;;4743211;54;21020;-32
2021/09/01 12:22:45;;;;;;;45.67;35.42;;;24.30;55.20;;;;;;4746081;54;21057;-33
2021/09/01 12:29:49;;;;;;;46.80;36.75;;;24.30;54.70;;;;;;4737718;55;20989;-32
2021/09/01 12:34:55;;;;;;;46.90;35.22;;;24.30;54.70;;;;;;4731725;54;21109;-32
2021/09/01 12:40:08;;;;;;;44.30;35.25;;;24.30;54.80;;;;;;4730723;58;21467;-34
2021/09/01 12:45:19;;;;;;;42.20;33.88;;;24.30;54.80;;;;;;4739395;54;21031;-33
2021/09/01 12:50:20;;;;;;;42.95;34.67;;;24.30;54.80;;;;;;4738070;54;21574;-33
2021/09/01 12:55:26;;;;;;;43.72;35.63;;;24.40;54.80;;;;;;4741033;54;21116;-32
2021/09/01 13:00:27;;;;;;;41.47;34.05;;;24.40;54.90;;;;;;4739675;54;21085;-36
2021/09/01 13:05:28;;;;;;;40.12;32.97;;;24.40;55.10;;;;;;4744341;55;21033;-32
2021/09/01 13:10:29;;;;;;;41.85;33.55;;;24.30;55.10;;;;;;4747906;55;21048;-33
2021/09/01 13:15:31;;;;;;;37.05;30.95;;;24.40;55.20;;;;;;4731293;59;21181;-35
2021/09/01 13:20:32;;;;;;;39.00;32.83;;;24.40;55.30;;;;;;4735781;54;21973;-30
2021/09/01 13:25:32;;;;;;;41.25;33.38;;;24.40;55.30;;;;;;4732071;56;21076;-33
2021/09/01 13:30:33;;;;;;;36.50;31.73;;;24.40;55.30;;;;;;4759148;55;21165;-32
2021/09/01 13:35:34;;;;;;;38.40;32.42;;;24.40;54.80;;;;;;4732048;55;21065;-33
2021/09/01 13:40:38;;;;;;;38.53;31.25;;;24.40;55.90;;;;;;4767539;54;21092;-31
2021/09/01 13:45:42;;;;;;;38.50;31.65;;;24.40;55.30;;;;;;4744051;54;21491;-33
2021/09/01 13:50:43;;;;;;;37.92;32.42;;;24.50;55.50;;;;;;4739376;55;21490;-32
2021/09/01 13:55:45;;;;;;;36.03;29.77;;;24.50;55.40;;;;;;4750761;54;21061;-36
2021/09/01 14:00:49;;;;;;;34.95;30.88;;;24.40;55.40;;;;;;4755442;54;21144;-30
2021/09/01 14:05:51;;;;;;;40.03;31.25;;;24.40;55.40;;;;;;4741163;55;21447;-31
2021/09/01 14:10:51;;;;;;;39.92;31.12;;;24.50;55.50;;;;;;4761158;55;21495;-33
2021/09/01 14:15:52;;;;;;;36.22;30.23;;;24.50;55.50;;;;;;4731149;59;21048;-34
2021/09/01 14:20:54;;;;;;;39.88;31.62;;;24.50;55.20;;;;;;4734991;54;21056;-33
2021/09/01 14:25:55;;;;;;;36.33;29.27;;;24.50;55.10;;;;;;4778877;54;21009;-33
2021/09/01 14:30:55;;;;;;;38.60;30.70;;;24.50;55.20;;;;;;4733073;54;21471;-32
2021/09/01 14:35:56;;;;;;;37.40;29.70;;;24.50;55.20;;;;;;4730787;55;21159;-32
2021/09/01 14:40:58;;;;;;;39.83;30.10;;;24.50;55.20;;;;;;4751247;55;21543;-33
2021/09/01 14:46:03;;;;;;;34.65;29.98;;;24.50;55.20;;;;;;4749536;55;21009;-33
2021/09/01 14:51:04;;;;;;;37.08;29.63;;;24.50;55.30;;;;;;4730868;59;21451;-31
2021/09/01 14:56:05;;;;;;;36.28;29.80;;;24.50;55.20;;;;;;4752658;55;21037;-31
2021/09/01 15:01:06;;;;;;;37.42;30.25;;;24.50;55.20;;;;;;4740922;55;21002;-32
2021/09/01 15:06:07;;;;;;;37.17;29.40;;;24.50;55.30;;;;;;4792431;55;21502;-34
2021/09/01 15:11:11;;;;;;;37.25;29.92;;;24.50;55.20;;;;;;4753693;54;21475;-33
2021/09/01 15:16:12;;;;;;;38.28;29.73;;;24.40;55.10;;;;;;4735471;55;21045;-32
2021/09/01 15:21:17;;;;;;;37.63;30.70;;;24.40;55.00;;;;;;4732079;54;21649;-39
2021/09/01 15:26:18;;;;;;;35.88;30.33;;;24.40;55.10;;;;;;4750610;55;21902;-34
2021/09/01 15:31:22;;;;;;;37.55;31.37;;;24.40;55.00;;;;;;4732733;55;21009;-32
2021/09/01 15:36:22;;;;;;;36.97;30.98;;;24.30;55.00;;;;;;4738252;55;21105;-34
2021/09/01 15:41:23;;;;;;;37.03;31.40;;;24.30;54.90;;;;;;4758980;54;21114;-32
2021/09/01 15:46:26;;;;;;;36.30;31.92;;;24.30;54.90;;;;;;4731406;59;21017;-35
2021/09/01 15:51:38;;;;;;;38.75;31.65;;;24.30;54.80;;;;;;4751621;54;21151;-30
2021/09/01 15:56:42;;;;;;;39.00;32.90;;;24.30;54.80;;;;;;4792372;54;21068;-33
2021/09/01 16:01:45;;;;;;;39.30;32.70;;;24.30;54.80;;;;;;4766990;54;21487;-35
2021/09/01 16:06:52;;;;;;;39.38;31.73;;;24.30;54.70;;;;;;4764040;54;20985;-32
2021/09/01 16:12:01;;;;;;;40.67;32.30;;;24.30;54.60;;;;;;4751704;54;21712;-30
2021/09/01 16:17:39;;;;;;;40.90;32.70;;;24.20;54.50;;;;;;4753154;54;22046;-33
2021/09/01 16:23:00;;;;;;;37.67;30.98;;;24.20;54.50;;;;;;4737032;55;21096;-32
2021/09/01 16:28:04;;;;;;;38.88;31.73;;;24.20;54.40;;;;;;4754986;54;21009;-35
2021/09/01 16:33:05;;;;;;;37.17;31.30;;;24.20;54.30;;;;;;4753334;54;21085;-35
2021/09/01 16:38:13;;;;;;;36.47;29.58;;;24.20;54.20;;;;;;4771962;54;21017;-32
2021/09/01 16:43:14;;;;;;;39.03;31.90;;;24.20;54.10;;;;;;4731182;56;21527;-35
2021/09/01 16:48:16;;;;;;;36.97;29.90;;;24.20;54.00;;;;;;4735696;54;21020;-34
2021/09/01 16:53:28;;;;;;;37.60;30.62;;;24.20;54.00;;;;;;4746328;54;21181;-32
2021/09/01 16:58:49;;;;;;;36.38;30.73;;;24.20;53.90;;;;;;4791668;54;21053;-34
2021/09/01 17:04:02;;;;;;;36.33;30.02;;;24.20;53.80;;;;;;4746163;54;21554;-34
2021/09/01 17:09:05;;;;;;;34.70;29.17;;;24.10;53.80;;;;;;4814816;54;21005;-32
2021/09/01 17:14:07;;;;;;;35.47;29.50;;;24.10;53.70;;;;;;4732080;54;21009;-35
2021/09/01 17:19:10;;;;;;;37.08;30.30;;;24.10;53.70;;;;;;4765691;54;21069;-35
2021/09/01 17:24:11;;;;;;;34.63;29.73;;;24.10;53.60;;;;;;4759773;54;21076;-34
2021/09/01 17:29:15;;;;;;;33.33;28.98;;;24.10;53.50;;;;;;4742333;55;21003;-32
2021/09/01 17:34:17;;;;;;;32.47;28.20;;;24.10;53.50;;;;;;4784728;54;21025;-35
2021/09/01 17:39:18;;;;;;;31.52;28.12;;;24.10;53.50;;;;;;4730549;59;21009;-31
2021/09/01 17:44:19;;;;;;;32.38;27.92;;;24.10;53.50;;;;;;4762242;54;21001;-33
2021/09/01 17:49:21;;;;;;;33.20;28.08;;;24.10;53.30;;;;;;4776149;55;21052;-29
2021/09/01 17:54:23;;;;;;;32.78;27.92;;;24.10;53.30;;;;;;4750518;54;21566;-33
2021/09/01 17:59:24;;;;;;;32.58;28.23;;;24.10;53.30;;;;;;4760543;54;21088;-32
2021/09/01 18:04:24;;;;;;;31.87;27.08;;;24.10;53.20;;;;;;4761888;55;21009;-34
2021/09/01 18:09:25;;;;;;;31.65;28.10;;;24.10;53.20;;;;;;4743196;55;21009;-31
2021/09/01 18:14:26;;;;;;;32.47;26.25;;;24.10;53.10;;;;;;4745058;55;21048;-31
2021/09/01 18:19:30;;;;;;;31.25;26.05;;;24.10;53.10;;;;;;4745927;55;21100;-32
2021/09/01 18:24:31;;;;;;;30.20;25.83;;;24.10;53.10;;;;;;4731646;58;20994;-33
2021/09/01 18:29:31;;;;;;;29.40;26.10;;;24.10;53.00;;;;;;4752041;55;21506;-32
2021/09/01 18:34:32;;;;;;;29.10;25.33;;;24.10;53.00;;;;;;4734449;54;21377;-34
2021/09/01 18:39:33;;;;;;;30.23;25.35;;;24.10;53.00;;;;;;4747657;54;21077;-31
2021/09/01 18:44:41;;;;;;;29.67;25.30;;;24.00;52.90;;;;;;4737208;54;21009;-33
2021/09/01 18:49:42;;;;;;;29.85;25.88;;;24.10;52.90;;;;;;4748183;54;21531;-32
2021/09/01 18:54:44;;;;;;;30.25;26.05;;;24.00;52.80;;;;;;4740157;54;20990;-34
2021/09/01 18:59:47;;;;;;;29.48;24.92;;;24.00;52.80;;;;;;4754394;54;21597;-32
2021/09/01 19:04:50;;;;;;;28.95;25.37;;;24.00;52.90;;;;;;4731975;59;21443;-34
2021/09/01 19:09:57;;;;;;;29.98;25.42;;;24.00;52.70;;;;;;4756565;54;21068;-31
2021/09/01 19:14:59;;;;;;;28.67;24.40;;;24.00;52.70;;;;;;4771619;54;21060;-36
2021/09/01 19:20:01;;;;;;;29.83;25.35;;;24.00;52.70;;;;;;4730238;59;21037;-32
2021/09/01 19:25:02;;;;;;;29.83;25.77;;;24.00;52.70;;;;;;4746188;54;21083;-32
2021/09/01 19:30:17;;;;;;;29.25;23.60;;;24.00;52.70;;;;;;4742562;54;21105;-35
2021/09/01 19:35:19;;;;;;;29.63;24.05;;;24.00;52.70;;;;;;4731669;54;21538;-32
2021/09/01 19:40:24;;;;;;;26.08;23.15;;;24.00;52.60;;;;;;4730415;58;21005;-33
2021/09/01 19:45:25;;;;;;;28.23;24.55;;;24.00;52.60;;;;;;4739131;54;21009;-31
2021/09/01 19:50:26;;;;;;;26.65;23.75;;;24.00;52.60;;;;;;4784783;54;21021;-35
2021/09/01 19:55:27;;;;;;;27.92;23.98;;;24.00;52.60;;;;;;4758129;55;21009;-36
2021/09/01 20:00:28;;;;;;;28.33;24.12;;;24.00;52.60;;;;;;4793600;54;21129;-32
2021/09/01 20:05:29;;;;;;;26.23;23.35;;;24.00;52.60;;;;;;4738922;55;21092;-35
2021/09/01 20:10:31;;;;;;;28.30;24.37;;;24.00;52.50;;;;;;4800538;54;21017;-32
2021/09/01 20:15:33;;;;;;;27.33;23.85;;;24.00;52.50;;;;;;4799060;54;21065;-34
2021/09/01 20:20:36;;;;;;;27.90;23.17;;;24.00;52.50;;;;;;4737640;54;21335;-32
2021/09/01 20:25:39;;;;;;;25.08;22.48;;;24.00;52.50;;;;;;4770309;54;21069;-34
2021/09/01 20:30:41;;;;;;;27.08;23.30;;;23.90;52.40;;;;;;4740157;54;21033;-35
2021/09/01 20:35:42;;;;;;;26.50;22.40;;;23.90;52.40;;;;;;4744466;54;21029;-31
2021/09/01 20:40:43;;;;;;;27.60;23.17;;;24.00;52.40;;;;;;4731395;59;21037;-30
2021/09/01 20:45:47;;;;;;;24.98;22.27;;;24.00;52.40;;;;;;4770736;54;21117;-29
2021/09/01 20:50:50;;;;;;;26.10;22.35;;;24.00;52.30;;;;;;4731293;59;22070;-35
2021/09/01 20:55:51;;;;;;;26.52;23.25;;;23.90;52.30;;;;;;4745284;54;21045;-33
2021/09/01 21:00:53;;;;;;;24.80;21.35;;;23.90;52.30;;;;;;4729926;58;21072;-35
2021/09/01 21:05:55;;;;;;;26.12;22.42;;;23.90;52.30;;;;;;4745620;54;21072;-33
2021/09/01 21:10:56;;;;;;;25.62;21.75;;;23.90;52.30;;;;;;4762632;55;21665;-34
2021/09/01 21:16:08;;;;;;;26.35;21.48;;;23.90;52.30;;;;;;4731353;59;21010;-34
2021/09/01 21:21:14;;;;;;;25.42;21.85;;;23.90;52.20;;;;;;4732033;54;20993;-34
2021/09/01 21:26:15;;;;;;;25.23;21.83;;;23.90;52.30;;;;;;4748862;54;20997;-31
2021/09/01 21:31:18;;;;;;;26.02;22.50;;;23.90;52.30;;;;;;4744633;55;21108;-28
2021/09/01 21:36:18;;;;;;;23.95;20.45;;;23.90;52.30;;;;;;4730399;58;21148;-35
2021/09/01 21:41:20;;;;;;;23.98;20.98;;;23.90;52.30;;;;;;4731497;59;21119;-35
2021/09/01 21:46:21;;;;;;;25.80;21.23;;;23.90;52.30;;;;;;4742037;55;21539;-34
2021/09/01 21:51:24;;;;;;;23.70;20.60;;;23.90;52.30;;;;;;4749709;54;21088;-32
2021/09/01 21:56:25;;;;;;;24.52;21.37;;;23.90;52.30;;;;;;4764990;54;21034;-33
2021/09/01 22:01:30;;;;;;;24.05;20.85;;;23.90;52.30;;;;;;4731526;59;20993;-33
2021/09/01 22:06:30;;;;;;;23.95;20.45;;;23.90;52.30;;;;;;4761178;54;21062;-33
2021/09/01 22:11:31;;;;;;;24.33;21.42;;;23.90;52.30;;;;;;4737082;55;20989;-34
2021/09/01 22:16:32;;;;;;;24.08;20.77;;;24.00;52.30;;;;;;4757691;55;21061;-35
2021/09/01 22:21:33;;;;;;;22.83;20.10;;;23.90;52.30;;;;;;4765167;55;21014;-33
2021/09/01 22:26:34;;;;;;;22.25;19.80;;;23.90;52.40;;;;;;4753751;54;21538;-34
2021/09/01 22:31:35;;;;;;;23.85;20.65;;;23.90;52.30;;;;;;4736241;55;21907;-34
2021/09/01 22:36:36;;;;;;;24.37;20.73;;;23.90;52.60;;;;;;4730940;54;21093;-35
2021/09/01 22:41:37;;;;;;;20.92;18.73;;;23.90;52.30;;;;;;4746521;54;21017;-35
2021/09/01 22:46:38;;;;;;;21.87;19.23;;;23.90;52.30;;;;;;4755495;55;21113;-36
2021/09/01 22:51:38;;;;;;;22.50;19.75;;;23.90;52.30;;;;;;4731758;59;21547;-36
2021/09/01 22:56:39;;;;;;;23.15;19.02;;;23.90;52.40;;;;;;4731634;59;21021;-32
2021/09/01 23:01:40;;;;;;;22.85;19.62;;;23.90;52.40;;;;;;4732856;55;21006;-35
2021/09/01 23:06:41;;;;;;;21.58;18.58;;;23.90;52.30;;;;;;4738059;55;21073;-32
2021/09/01 23:11:42;;;;;;;21.95;18.77;;;23.90;52.30;;;;;;4731695;59;21474;-35
2021/09/01 23:16:43;;;;;;;22.25;18.90;;;23.90;52.30;;;;;;4739870;54;21029;-31
2021/09/01 23:21:44;;;;;;;20.48;17.92;;;23.80;52.30;;;;;;4740334;55;21040;-35
2021/09/01 23:26:44;;;;;;;20.98;18.50;;;23.80;52.20;;;;;;4765639;54;21021;-35
2021/09/01 23:31:45;;;;;;;20.27;17.85;;;23.90;52.30;;;;;;4767702;54;21018;-34
2021/09/01 23:36:46;;;;;;;21.80;18.15;;;23.90;52.40;;;;;;4740943;55;21034;-34
2021/09/01 23:41:47;;;;;;;20.40;18.17;;;23.90;52.30;;;;;;4731606;58;21021;-31
2021/09/01 23:46:48;;;;;;;20.88;18.58;;;23.90;52.30;;;;;;4731176;59;21053;-31
2021/09/01 23:51:48;;;;;;;21.30;17.50;;;23.80;52.20;;;;;;4731332;55;21515;-33
2021/09/01 23:56:49;;;;;;;20.17;17.98;;;23.80;52.20;;;;;;4743819;55;21040;-33
